Time;durP1;ratioP1;P1;durP2;ratioP2;P2;SDS_P1;SDS_P2;PMS_P1;PMS_P2;Temp;Humidity;BMP_temperature;BMP_pressure;BME280_temperature;BME280_humidity;BME280_pressure;Samples;Min_cycle;Max_cycle;Signal;HPM_P1;HPM_P2
2022/07/02 00:01:19;;;;;;;8.17;6.00;;;;;;;19.90;75.87;100832.31;1703991;84;21735;-69
2022/07/02 00:03:52;;;;;;;7.87;5.70;;;;;;;19.91;75.94;100835.85;1703592;82;20999;-69
2022/07/02 00:06:20;;;;;;;7.63;5.87;;;;;;;19.91;76.08;100838.00;1719265;81;21196;-69
2022/07/02 00:08:47;;;;;;;9.17;5.97;;;;;;;19.94;76.05;100841.18;1722654;83;21186;-70
2022/07/02 00:11:16;;;;;;;8.07;5.30;;;;;;;19.93;76.00;100844.45;1722786;83;21151;-70
2022/07/02 00:13:43;;;;;;;7.77;6.03;;;;;;;19.93;76.04;100836.87;1724957;80;21051;-69
2022/07/02 00:16:13;;;;;;;7.70;5.50;;;;;;;19.90;75.97;100839.66;1724282;81;21073;-69
2022/07/02 00:18:40;;;;;;;8.03;5.70;;;;;;;19.88;76.23;100845.41;1707324;82;22050;-69
2022/07/02 00:21:06;;;;;;;8.60;5.87;;;;;;;19.82;76.30;100845.29;1705524;82;21558;-69
2022/07/02 00:23:33;;;;;;;7.53;5.73;;;;;;;19.81;76.39;100851.83;1710082;81;21632;-69
2022/07/02 00:26:11;;;;;;;6.80;5.67;;;;;;;19.82;76.41;100850.71;1708423;82;21069;-70
2022/07/02 00:28:41;;;;;;;6.83;5.30;;;;;;;19.84;76.73;100845.79;1706340;82;21425;-69
2022/07/02 00:31:08;;;;;;;7.93;5.00;;;;;;;19.86;76.78;100849.53;1706916;82;21251;-69
2022/07/02 00:33:36;;;;;;;8.17;4.83;;;;;;;19.84;76.51;100848.50;1705612;82;20966;-69
2022/07/02 00:36:04;;;;;;;6.57;4.90;;;;;;;19.80;76.31;100852.92;1706863;81;21070;-69
2022/07/02 00:38:31;;;;;;;6.33;4.67;;;;;;;19.78;76.07;100851.09;1707765;82;20994;-69
2022/07/02 00:40:59;;;;;;;7.33;5.57;;;;;;;19.76;75.92;100850.59;1708188;82;21120;-69
2022/07/02 00:43:26;;;;;;;6.83;4.90;;;;;;;19.75;75.88;100859.84;1707637;82;21175;-69
2022/07/02 00:45:52;;;;;;;10.83;4.73;;;;;;;19.73;76.08;100859.91;1707883;82;21092;-69
2022/07/02 00:48:19;;;;;;;6.63;4.97;;;;;;;19.71;75.99;100856.70;1708371;82;21018;-69
2022/07/02 00:50:49;;;;;;;5.70;4.63;;;;;;;19.62;76.13;100853.92;1707876;82;20975;-69
2022/07/02 00:53:16;;;;;;;7.77;5.80;;;;;;;19.58;76.25;100855.11;1707850;82;21061;-69
2022/07/02 00:55:42;;;;;;;7.27;6.07;;;;;;;19.57;76.43;100851.34;1720626;81;22592;-70
2022/07/02 00:58:09;;;;;;;7.70;5.50;;;;;;;19.55;77.15;100859.00;1765678;80;21582;-70
2022/07/02 01:00:35;;;;;;;8.23;6.00;;;;;;;19.53;77.65;100857.14;1758777;80;21043;-69
2022/07/02 01:03:01;;;;;;;6.83;5.93;;;;;;;19.52;77.91;100860.97;1756720;80;21124;-69
2022/07/02 01:05:28;;;;;;;6.87;5.93;;;;;;;19.51;78.23;100858.78;1758976;80;21750;-69
2022/07/02 01:10:45;;;;;;;6.97;5.63;;;;;;;19.56;78.60;100868.71;1758366;80;21601;-70
2022/07/02 01:13:13;;;;;;;8.07;6.10;;;;;;;19.56;78.62;100866.80;1755438;80;21074;-69
2022/07/02 01:15:40;;;;;;;8.70;6.00;;;;;;;19.66;78.40;100859.00;1758973;80;20972;-69
2022/07/02 01:18:07;;;;;;;7.47;5.90;;;;;;;19.60;78.74;100862.91;1756805;80;21035;-69
2022/07/02 01:20:33;;;;;;;7.70;5.40;;;;;;;19.58;78.87;100874.08;1786357;80;22224;-69
2022/07/02 01:23:00;;;;;;;6.57;5.33;;;;;;;19.58;78.90;100883.55;1783727;80;20947;-70
2022/07/02 01:25:27;;;;;;;5.97;5.13;;;;;;;19.57;78.68;100888.71;1757657;80;21090;-69
2022/07/02 01:27:53;;;;;;;6.77;5.20;;;;;;;19.55;78.39;100890.16;1757736;80;21039;-69
2022/07/02 01:30:20;;;;;;;6.23;5.10;;;;;;;19.53;78.13;100893.71;1758893;79;21455;-70
2022/07/02 01:32:48;;;;;;;6.67;5.10;;;;;;;19.52;77.84;100894.83;1760011;80;21163;-70
2022/07/02 01:35:15;;;;;;;5.90;4.70;;;;;;;19.50;77.37;100892.97;1758184;80;21004;-69
2022/07/02 01:37:41;;;;;;;5.17;4.50;;;;;;;19.45;76.97;100899.33;1759162;80;21105;-69
2022/07/02 01:40:08;;;;;;;6.73;4.93;;;;;;;19.41;76.50;100903.20;1754869;79;20974;-69
2022/07/02 01:42:36;;;;;;;6.87;4.77;;;;;;;19.38;76.40;100904.35;1720215;83;20955;-69
2022/07/02 01:45:04;;;;;;;6.27;4.50;;;;;;;19.36;76.19;100901.17;1717706;82;21114;-70
2022/07/02 01:47:32;;;;;;;5.90;4.50;;;;;;;19.35;76.06;100909.05;1758482;81;21098;-70
2022/07/02 01:49:59;;;;;;;7.47;4.37;;;;;;;19.32;75.91;100908.31;1724652;81;21533;-70
2022/07/02 01:52:27;;;;;;;8.03;4.47;;;;;;;19.26;75.59;100910.33;1692170;83;21008;-70
2022/07/02 01:54:54;;;;;;;6.10;4.30;;;;;;;19.20;75.54;100908.84;1691227;83;21498;-70
2022/07/02 01:57:20;;;;;;;6.27;4.47;;;;;;;19.10;75.27;100907.17;1722340;81;21623;-70
2022/07/02 01:59:47;;;;;;;5.33;4.10;;;;;;;18.99;74.91;100907.16;1694524;83;21053;-70
2022/07/02 02:02:13;;;;;;;7.60;4.30;;;;;;;18.84;74.56;100904.22;1715019;82;21163;-70
2022/07/02 02:04:40;;;;;;;5.37;4.20;;;;;;;18.72;74.51;100902.58;1713568;82;21087;-70
2022/07/02 02:07:07;;;;;;;6.57;3.80;;;;;;;18.66;74.55;100905.14;1703142;82;21058;-70
2022/07/02 02:09:34;;;;;;;6.97;4.07;;;;;;;18.66;74.49;100911.91;1705110;81;21150;-70
2022/07/02 02:12:02;;;;;;;5.50;4.10;;;;;;;18.62;74.62;100913.59;1732170;82;21568;-70
2022/07/02 02:14:29;;;;;;;5.93;3.70;;;;;;;18.69;74.46;100919.39;1701028;82;21097;-70
2022/07/02 02:16:56;;;;;;;6.87;4.30;;;;;;;18.62;74.47;100920.35;1705981;83;21573;-70
2022/07/02 02:19:23;;;;;;;6.27;4.30;;;;;;;18.60;74.48;100919.88;1704318;82;21001;-70
2022/07/02 02:21:49;;;;;;;5.93;4.50;;;;;;;18.65;74.44;100926.52;1703726;82;21113;-70
2022/07/02 02:24:16;;;;;;;6.67;4.10;;;;;;;18.74;74.03;100919.33;1734259;81;20951;-69
2022/07/02 02:26:42;;;;;;;6.30;4.23;;;;;;;18.70;73.82;100921.81;1735951;82;21506;-70
2022/07/02 02:29:09;;;;;;;6.47;4.17;;;;;;;18.74;73.55;100921.48;1711452;81;21031;-69
2022/07/02 02:31:36;;;;;;;5.13;3.97;;;;;;;18.79;73.05;100924.64;1769663;80;20975;-69
2022/07/02 02:34:02;;;;;;;5.77;4.00;;;;;;;18.86;72.69;100925.59;1760937;80;21094;-70
2022/07/02 02:36:29;;;;;;;5.57;3.93;;;;;;;18.90;72.52;100930.08;1762466;80;21533;-70
2022/07/02 02:38:56;;;;;;;6.53;3.90;;;;;;;18.94;72.42;100931.06;1781104;80;21066;-70
2022/07/02 02:41:23;;;;;;;7.10;4.50;;;;;;;18.95;72.22;100929.16;1761561;80;20971;-69
2022/07/02 02:43:50;;;;;;;7.93;4.57;;;;;;;18.98;71.93;100928.55;1759673;80;21050;-69
2022/07/02 02:46:17;;;;;;;5.53;4.23;;;;;;;19.04;71.51;100927.89;1780727;80;21574;-70
2022/07/02 02:48:43;;;;;;;6.90;4.40;;;;;;;19.07;71.33;100935.41;1762445;80;21535;-69
2022/07/02 02:51:14;;;;;;;5.00;4.13;;;;;;;19.09;71.13;100936.72;1762827;80;21017;-69
2022/07/02 02:53:42;;;;;;;5.17;4.10;;;;;;;19.06;71.01;100946.00;1784363;79;20999;-69
2022/07/02 02:56:09;;;;;;;6.10;4.10;;;;;;;19.07;71.00;100944.88;1773129;80;21026;-69
2022/07/02 02:58:36;;;;;;;6.57;4.10;;;;;;;19.07;70.86;100947.03;1736783;81;21549;-69
2022/07/02 03:01:02;;;;;;;7.37;3.80;;;;;;;19.06;70.84;100946.00;1744750;81;21058;-69
2022/07/02 03:03:29;;;;;;;5.57;3.80;;;;;;;19.09;70.61;100951.60;1726971;80;21090;-70
2022/07/02 03:05:56;;;;;;;5.23;3.57;;;;;;;19.12;70.52;100950.20;1705594;83;21459;-69
2022/07/02 03:08:22;;;;;;;5.53;3.80;;;;;;;19.20;70.39;100948.11;1695742;83;21605;-69
2022/07/02 03:10:50;;;;;;;6.80;4.30;;;;;;;19.25;69.83;100949.36;1695670;83;21222;-69
2022/07/02 03:13:17;;;;;;;4.70;3.57;;;;;;;19.25;69.54;100956.66;1695825;83;21494;-69
2022/07/02 03:15:44;;;;;;;6.10;4.00;;;;;;;19.26;69.40;100955.02;1712693;82;21620;-69
2022/07/02 03:18:13;;;;;;;5.20;3.90;;;;;;;19.29;69.05;100951.70;1719445;83;21032;-69
2022/07/02 03:20:40;;;;;;;4.90;3.70;;;;;;;19.33;68.76;100957.30;1705954;83;21022;-69
2022/07/02 03:23:06;;;;;;;5.97;3.70;;;;;;;19.33;68.68;100971.64;1705892;83;21275;-69
2022/07/02 03:25:33;;;;;;;6.87;4.10;;;;;;;19.36;68.65;100975.09;1704347;82;21950;-69
2022/07/02 03:27:59;;;;;;;5.27;3.53;;;;;;;19.44;68.42;100977.06;1704704;84;21456;-69
2022/07/02 03:30:26;;;;;;;6.10;3.93;;;;;;;19.52;68.01;100978.82;1704838;84;21061;-70
2022/07/02 03:32:52;;;;;;;5.60;3.90;;;;;;;19.55;67.54;100978.20;1749742;80;21440;-69
2022/07/02 03:35:20;;;;;;;7.23;3.80;;;;;;;19.59;67.32;100980.55;1720634;81;21990;-69
2022/07/02 03:37:46;;;;;;;4.43;3.70;;;;;;;19.61;67.20;100978.31;1746162;81;21192;-70
2022/07/02 03:40:13;;;;;;;6.33;3.97;;;;;;;19.66;67.00;100982.30;1728775;82;21511;-70
2022/07/02 03:42:40;;;;;;;6.97;3.93;;;;;;;19.74;66.89;100983.46;1726099;81;21505;-70
2022/07/02 03:45:09;;;;;;;5.37;3.80;;;;;;;19.78;66.39;100986.62;1720377;82;21080;-69
2022/07/02 03:47:35;;;;;;;5.90;4.37;;;;;;;19.81;66.00;100994.14;1723572;82;21214;-70
2022/07/02 03:50:03;;;;;;;6.77;4.03;;;;;;;19.84;65.80;100992.17;1732658;82;21083;-69
2022/07/02 03:52:30;;;;;;;5.87;4.10;;;;;;;19.91;65.65;100989.81;1765095;80;20991;-69
2022/07/02 03:54:56;;;;;;;6.17;4.20;;;;;;;19.95;65.45;100986.48;1722407;80;21057;-69
2022/07/02 03:57:23;;;;;;;7.93;4.20;;;;;;;20.01;65.05;100986.61;1754255;81;21093;-69
2022/07/02 03:59:50;;;;;;;5.57;3.93;;;;;;;20.05;64.63;100982.95;1753343;81;22184;-70
2022/07/02 04:02:16;;;;;;;7.23;4.27;;;;;;;20.09;64.64;100983.13;1709422;82;21106;-69
2022/07/02 04:04:43;;;;;;;5.37;3.90;;;;;;;20.13;64.50;100982.75;1768012;79;21007;-69
2022/07/02 04:07:09;;;;;;;5.33;3.87;;;;;;;20.20;64.44;100975.53;1762032;80;21034;-69
2022/07/02 04:09:36;;;;;;;6.57;3.80;;;;;;;20.28;64.23;100975.58;1779048;80;21466;-69
2022/07/02 04:12:03;;;;;;;5.73;3.90;;;;;;;20.33;63.65;100979.50;1750263;81;21580;-70
2022/07/02 04:14:29;;;;;;;6.03;4.00;;;;;;;20.35;63.35;100975.93;1725846;80;21023;-70
2022/07/02 04:16:57;;;;;;;6.00;4.20;;;;;;;20.39;63.12;100974.75;1721410;81;20977;-70
2022/07/02 04:19:26;;;;;;;5.53;3.90;;;;;;;20.44;63.23;100976.54;1707808;83;21017;-70
2022/07/02 04:21:53;;;;;;;4.93;4.00;;;;;;;20.50;63.27;100976.61;1709076;83;21089;-70
2022/07/02 04:24:19;;;;;;;5.17;3.83;;;;;;;20.57;62.97;100977.81;1716112;81;21509;-70
2022/07/02 04:26:46;;;;;;;5.23;4.00;;;;;;;20.66;62.84;100982.45;1781816;80;20990;-69
2022/07/02 04:29:13;;;;;;;6.50;4.30;;;;;;;20.74;62.50;100978.42;1757704;80;20992;-70
2022/07/02 04:31:41;;;;;;;9.10;4.60;;;;;;;20.82;61.92;100988.49;1759360;80;21185;-70
2022/07/02 04:34:07;;;;;;;7.03;4.80;;;;;;;20.94;61.92;100996.05;1760363;79;21127;-70
2022/07/02 04:36:34;;;;;;;6.37;4.47;;;;;;;21.06;61.49;100999.52;1758165;80;21158;-71
2022/07/02 04:39:02;;;;;;;8.50;4.60;;;;;;;21.09;60.49;101002.93;1758433;80;21128;-70
2022/07/02 04:41:29;;;;;;;5.63;4.60;;;;;;;21.06;60.19;101003.02;1758128;79;21553;-71
2022/07/02 04:43:57;;;;;;;6.73;4.37;;;;;;;21.09;60.41;101000.21;1760263;80;21609;-70
2022/07/02 04:46:23;;;;;;;5.37;4.10;;;;;;;21.20;60.67;100996.09;1758630;80;21005;-70
2022/07/02 04:48:50;;;;;;;8.50;4.50;;;;;;;21.44;60.20;101008.45;1759396;80;21580;-70
2022/07/02 04:51:17;;;;;;;5.83;4.40;;;;;;;22.03;58.56;100999.20;1756791;79;21221;-70
2022/07/02 04:53:45;;;;;;;8.07;4.30;;;;;;;22.17;57.98;101012.64;1760544;80;21005;-70
2022/07/02 04:56:12;;;;;;;6.23;4.40;;;;;;;22.32;57.02;101016.20;1756967;80;21115;-70
2022/07/02 04:58:39;;;;;;;6.00;4.77;;;;;;;22.42;57.18;101025.38;1758223;80;21095;-70
2022/07/02 05:01:05;;;;;;;6.03;4.50;;;;;;;22.54;56.75;101016.54;1761458;79;21594;-70
2022/07/02 05:03:33;;;;;;;6.60;4.53;;;;;;;22.65;56.55;101020.48;1757880;80;21003;-69
2022/07/02 05:05:59;;;;;;;5.57;4.30;;;;;;;22.74;56.26;101016.91;1755669;80;21098;-70
2022/07/02 05:08:26;;;;;;;5.37;4.40;;;;;;;22.83;55.69;101017.09;1761210;80;21058;-69
2022/07/02 05:10:53;;;;;;;6.50;4.77;;;;;;;22.91;54.76;101020.92;1759732;80;21544;-70
2022/07/02 05:13:21;;;;;;;5.87;4.30;;;;;;;22.98;54.96;101023.95;1757724;80;21867;-70
2022/07/02 05:15:49;;;;;;;6.40;3.97;;;;;;;23.07;54.48;101028.00;1747993;80;21588;-70
2022/07/02 05:18:16;;;;;;;8.30;4.60;;;;;;;23.17;54.25;101032.50;1732467;82;21207;-70
2022/07/02 05:20:42;;;;;;;6.27;4.33;;;;;;;23.27;53.77;101034.61;1701656;81;21081;-70
2022/07/02 05:23:09;;;;;;;5.10;4.07;;;;;;;23.34;53.60;101028.06;1701574;81;21491;-70
2022/07/02 05:25:35;;;;;;;7.60;4.20;;;;;;;23.41;53.53;101025.59;1666173;85;21598;-70
2022/07/02 05:28:02;;;;;;;5.87;4.20;;;;;;;23.52;53.26;101022.69;1666321;85;21086;-71
2022/07/02 05:30:28;;;;;;;6.03;4.03;;;;;;;23.62;52.52;101020.13;1690438;83;21050;-70
2022/07/02 05:32:55;;;;;;;8.37;4.27;;;;;;;23.71;52.25;101025.55;1718696;81;21735;-70
2022/07/02 05:35:22;;;;;;;6.63;3.90;;;;;;;23.76;51.87;101022.63;1697251;83;21573;-70
2022/07/02 05:37:48;;;;;;;6.87;4.13;;;;;;;23.87;51.97;101031.98;1721621;81;21167;-70
2022/07/02 05:40:15;;;;;;;7.27;3.90;;;;;;;24.02;51.63;101032.72;1692858;83;21074;-70
2022/07/02 05:42:41;;;;;;;6.50;3.90;;;;;;;24.18;51.25;101035.59;1692876;83;21031;-70
2022/07/02 05:45:08;;;;;;;5.60;3.23;;;;;;;24.32;51.00;101032.00;1692307;83;21042;-68
2022/07/02 05:47:36;;;;;;;8.43;3.83;;;;;;;24.43;49.96;101032.38;1691366;83;21004;-68
2022/07/02 05:50:03;;;;;;;5.43;3.73;;;;;;;24.51;50.25;101027.95;1692337;83;21153;-69
2022/07/02 05:52:30;;;;;;;6.03;3.90;;;;;;;24.62;49.50;101030.47;1722640;81;21015;-68
2022/07/02 05:54:56;;;;;;;5.80;3.70;;;;;;;24.66;49.55;101038.78;1690227;83;21596;-70
2022/07/02 05:57:23;;;;;;;7.57;3.50;;;;;;;24.77;49.68;101039.91;1691347;83;21530;-69
2022/07/02 05:59:49;;;;;;;5.80;4.00;;;;;;;24.88;49.30;101043.80;1722672;81;21585;-69
2022/07/02 06:02:16;;;;;;;5.33;3.37;;;;;;;24.93;48.77;101038.09;1693307;83;21189;-68
2022/07/02 06:04:42;;;;;;;9.57;3.77;;;;;;;24.93;48.84;101036.72;1691832;83;21067;-69
2022/07/02 06:09:54;;;;;;;6.00;3.27;;;;;;;25.00;47.46;101034.78;1689976;83;21550;-69
2022/07/02 06:12:20;;;;;;;6.40;3.13;;;;;;;25.10;47.80;101048.55;1692754;83;21011;-69
2022/07/02 06:14:47;;;;;;;5.57;3.17;;;;;;;25.20;47.19;101049.48;1693240;83;21189;-69
2022/07/02 06:17:14;;;;;;;6.17;3.40;;;;;;;25.32;46.87;101048.67;1690826;84;21098;-69
2022/07/02 06:19:42;;;;;;;4.93;3.33;;;;;;;25.43;45.87;101053.30;1721278;81;20995;-69
2022/07/02 06:22:10;;;;;;;5.83;3.40;;;;;;;25.53;45.88;101059.44;1724476;81;21074;-69
2022/07/02 06:24:38;;;;;;;6.57;3.40;;;;;;;25.64;45.26;101059.19;1653245;83;21110;-70
2022/07/02 06:27:05;;;;;;;5.27;3.20;;;;;;;25.73;44.89;101066.66;1728050;81;21140;-69
2022/07/02 06:29:33;;;;;;;3.87;2.67;;;;;;;25.74;44.69;101069.64;1691805;83;20943;-69
2022/07/02 06:31:59;;;;;;;4.20;2.93;;;;;;;25.80;44.56;101068.29;1690130;83;21597;-69
2022/07/02 06:34:27;;;;;;;4.20;2.97;;;;;;;25.82;44.30;101065.98;1724516;83;21096;-69
2022/07/02 06:36:54;;;;;;;4.80;2.93;;;;;;;25.90;44.62;101062.89;1723993;83;21022;-68
2022/07/02 06:39:21;;;;;;;6.57;3.33;;;;;;;25.98;43.66;101066.61;1721120;83;21733;-69
2022/07/02 06:44:32;;;;;;;4.43;3.17;;;;;;;25.99;43.52;101072.30;1720539;82;21022;-67
2022/07/02 06:46:59;;;;;;;5.57;2.97;;;;;;;26.07;43.91;101070.80;1703265;83;21110;-69
2022/07/02 06:49:26;;;;;;;4.17;3.20;;;;;;;26.12;43.96;101076.58;1705900;84;21176;-68
2022/07/02 06:51:52;;;;;;;4.03;3.00;;;;;;;26.17;43.83;101077.70;1705856;83;21842;-69
2022/07/02 06:54:19;;;;;;;5.07;2.97;;;;;;;26.24;43.52;101071.62;1700928;82;21039;-69
2022/07/02 06:56:46;;;;;;;6.27;3.20;;;;;;;26.33;43.15;101071.68;1704945;84;21028;-69
2022/07/02 06:59:12;;;;;;;4.40;3.20;;;;;;;26.40;42.82;101070.48;1705326;83;21008;-69
2022/07/02 07:01:39;;;;;;;6.27;3.20;;;;;;;26.46;42.48;101078.46;1705051;84;21053;-69
2022/07/02 07:04:05;;;;;;;5.07;3.13;;;;;;;26.57;41.87;101073.48;1701536;83;21585;-69
2022/07/02 07:06:36;;;;;;;5.40;3.00;;;;;;;26.68;42.10;101081.97;1701574;83;21529;-70
2022/07/02 07:09:00;;;;;;;5.57;2.83;;;;;;;26.75;42.05;101078.61;1670517;82;21316;-69
2022/07/02 07:11:28;;;;;;;5.03;3.20;;;;;;;26.81;41.99;101075.24;1703096;82;21544;-68
2022/07/02 07:13:54;;;;;;;5.60;3.30;;;;;;;26.90;41.53;101071.75;1700608;82;21076;-69
2022/07/02 07:16:22;;;;;;;6.43;3.83;;;;;;;26.95;41.08;101083.59;1703133;82;20998;-69
2022/07/02 07:18:54;;;;;;;4.80;3.13;;;;;;;26.98;41.37;101072.70;1699874;82;21101;-69
2022/07/02 07:21:17;;;;;;;5.07;2.90;;;;;;;27.05;41.36;101075.64;1701903;82;21065;-69
2022/07/02 07:23:43;;;;;;;6.70;3.00;;;;;;;27.14;40.59;101074.08;1702299;82;21065;-70
2022/07/02 07:26:10;;;;;;;6.50;3.13;;;;;;;27.18;40.68;101070.05;1702727;84;21066;-69
2022/07/02 07:28:37;;;;;;;5.33;2.90;;;;;;;27.24;40.34;101079.02;1703121;82;21158;-69
2022/07/02 07:31:05;;;;;;;5.40;2.90;;;;;;;27.29;40.37;101083.44;1700006;82;21058;-69
2022/07/02 07:33:32;;;;;;;5.50;2.70;;;;;;;27.34;41.04;101081.23;1708888;82;21158;-69
2022/07/02 07:35:59;;;;;;;5.03;2.87;;;;;;;27.47;40.40;101071.47;1703272;82;21058;-69
2022/07/02 07:38:25;;;;;;;7.67;2.67;;;;;;;27.58;38.65;101069.19;1702256;83;21069;-68
2022/07/02 07:40:52;;;;;;;4.40;2.63;;;;;;;27.62;39.46;101075.33;1702392;82;21540;-68
2022/07/02 07:43:19;;;;;;;6.27;3.10;;;;;;;27.63;39.44;101076.91;1703133;82;21549;-69
2022/07/02 07:45:46;;;;;;;6.40;2.70;;;;;;;27.63;39.38;101071.42;1702979;82;21463;-69
2022/07/02 07:48:14;;;;;;;6.97;2.67;;;;;;;27.71;38.98;101067.68;1701393;84;21026;-68
2022/07/02 07:50:40;;;;;;;6.67;2.57;;;;;;;27.76;38.61;101071.49;1702177;83;21106;-68
2022/07/02 07:53:07;;;;;;;3.43;2.40;;;;;;;27.79;39.02;101070.80;1754723;81;21521;-70
2022/07/02 07:55:33;;;;;;;5.00;2.57;;;;;;;27.92;38.11;101072.23;1756268;81;21113;-69
2022/07/02 07:58:00;;;;;;;4.70;2.40;;;;;;;27.99;37.89;101068.84;1756496;80;21053;-68
2022/07/02 08:00:27;;;;;;;5.27;2.60;;;;;;;28.04;37.43;101067.18;1759277;80;21028;-71
2022/07/02 08:02:54;;;;;;;4.43;2.80;;;;;;;28.10;37.80;101077.27;1757925;80;21011;-70
2022/07/02 08:05:20;;;;;;;7.13;2.40;;;;;;;28.20;38.25;101079.42;1750061;80;22149;-70
2022/07/02 08:07:50;;;;;;;6.57;2.50;;;;;;;28.26;36.11;101077.37;1749964;82;21059;-69
2022/07/02 08:10:17;;;;;;;4.27;2.07;;;;;;;28.30;36.38;101074.73;1749723;81;21569;-70
2022/07/02 08:12:43;;;;;;;3.67;2.13;;;;;;;28.37;36.41;101079.55;1749335;80;22196;-70
2022/07/02 08:15:10;;;;;;;6.67;2.33;;;;;;;28.37;35.60;101080.34;1758909;80;21075;-69
2022/07/02 08:17:37;;;;;;;5.53;2.40;;;;;;;28.44;35.63;101087.95;1758047;80;22172;-71
2022/07/02 08:20:05;;;;;;;5.53;2.30;;;;;;;28.55;35.32;101086.16;1758975;80;21087;-71
2022/07/02 08:22:33;;;;;;;6.07;2.27;;;;;;;28.68;34.77;101090.31;1752178;80;21061;-71
2022/07/02 08:24:59;;;;;;;4.80;1.93;;;;;;;28.81;34.58;101087.38;1720418;81;21047;-69
2022/07/02 08:27:25;;;;;;;4.40;2.20;;;;;;;28.90;33.02;101083.21;1723954;82;21066;-70
2022/07/02 08:29:52;;;;;;;4.03;2.20;;;;;;;28.89;31.86;101085.76;1723670;81;21871;-70
2022/07/02 08:32:18;;;;;;;3.80;2.20;;;;;;;28.86;33.18;101096.67;1694027;83;20971;-70
2022/07/02 08:34:46;;;;;;;2.23;1.60;;;;;;;28.91;33.40;101092.25;1719142;83;21019;-69
2022/07/02 08:37:13;;;;;;;6.57;1.93;;;;;;;28.95;33.07;101093.09;1723390;80;21058;-70
2022/07/02 08:39:39;;;;;;;2.87;1.90;;;;;;;28.87;30.81;101085.91;1722024;81;21037;-71
2022/07/02 08:42:06;;;;;;;3.93;2.10;;;;;;;28.78;30.03;101082.61;1692158;83;22199;-70
2022/07/02 08:44:33;;;;;;;5.47;2.00;;;;;;;28.71;29.56;101082.70;1692636;83;21574;-70
2022/07/02 08:47:00;;;;;;;4.10;1.90;;;;;;;28.67;30.70;101083.82;1691408;84;21137;-69
2022/07/02 08:49:27;;;;;;;4.03;1.90;;;;;;;28.68;29.88;101091.69;1690805;83;21074;-70
2022/07/02 08:52:07;;;;;;;3.73;1.73;;;;;;;28.66;30.76;101095.40;1693660;84;21051;-70
2022/07/02 08:54:35;;;;;;;3.55;2.08;;;;;;;28.69;30.31;101096.59;1695404;83;21271;-68
2022/07/02 08:57:03;;;;;;;3.70;1.97;;;;;;;28.69;29.62;101098.79;1694106;83;21621;-70
2022/07/02 08:59:30;;;;;;;5.37;2.53;;;;;;;28.68;30.37;101098.55;1722340;81;21509;-71
2022/07/02 09:01:57;;;;;;;3.73;2.30;;;;;;;28.69;30.66;101105.66;1690008;83;20979;-70
2022/07/02 09:04:23;;;;;;;3.57;2.20;;;;;;;28.73;29.40;101100.22;1692463;83;21074;-70
2022/07/02 09:06:52;;;;;;;3.87;2.30;;;;;;;28.78;30.06;101091.65;1692123;83;21731;-70
2022/07/02 09:09:18;;;;;;;4.37;2.40;;;;;;;28.88;30.23;101089.65;1691434;83;21161;-70
2022/07/02 09:11:47;;;;;;;5.27;2.00;;;;;;;29.05;31.13;101095.23;1692053;83;21058;-70
2022/07/02 09:14:14;;;;;;;2.67;1.83;;;;;;;29.24;30.60;101094.93;1720360;81;21060;-70
2022/07/02 09:16:41;;;;;;;4.67;2.13;;;;;;;29.36;28.49;101094.13;1721791;81;21267;-71
2022/07/02 09:19:08;;;;;;;3.90;2.07;;;;;;;29.29;29.69;101093.25;1691252;81;21672;-70
2022/07/02 09:21:50;;;;;;;3.83;2.13;;;;;;;29.30;30.57;101096.98;1723102;81;21780;-70
2022/07/02 09:24:39;;;;;;;4.20;2.17;;;;;;;29.35;30.36;101095.30;1719781;81;21067;-69
2022/07/02 09:27:15;;;;;;;3.20;2.13;;;;;;;29.41;30.22;101090.25;1719386;81;21020;-69
2022/07/02 09:29:52;;;;;;;4.27;2.20;;;;;;;29.56;30.40;101092.62;1723176;81;21145;-69
2022/07/02 09:32:20;;;;;;;5.83;2.30;;;;;;;29.71;29.82;101088.89;1721641;81;21129;-69
2022/07/02 09:34:52;;;;;;;3.60;2.00;;;;;;;29.79;28.81;101085.66;1723002;81;21177;-69
2022/07/02 09:37:25;;;;;;;3.00;1.90;;;;;;;29.85;29.98;101095.97;1724025;81;21053;-69
2022/07/02 09:39:53;;;;;;;3.30;2.30;;;;;;;29.92;27.72;101091.13;1722918;81;21107;-69
2022/07/02 09:42:32;;;;;;;4.77;2.00;;;;;;;29.83;27.70;101103.02;1723266;81;21052;-69
2022/07/02 09:45:03;;;;;;;4.83;2.20;;;;;;;29.70;27.35;101107.17;1692168;81;21200;-70
2022/07/02 09:47:39;;;;;;;5.60;2.10;;;;;;;29.56;27.11;101099.50;1722612;81;21138;-69
2022/07/02 09:50:10;;;;;;;3.70;2.17;;;;;;;29.50;28.06;101095.48;1722634;81;21621;-68
2022/07/02 09:52:55;;;;;;;4.77;2.37;;;;;;;29.48;27.25;101095.84;1721728;81;21094;-69
2022/07/02 09:55:29;;;;;;;6.73;2.47;;;;;;;29.47;27.51;101094.86;1671067;81;21020;-70
2022/07/02 09:57:59;;;;;;;2.87;2.00;;;;;;;29.51;28.46;101092.94;1718663;81;21125;-69
2022/07/02 10:00:32;;;;;;;4.17;2.27;;;;;;;29.61;28.64;101093.69;1722671;81;21000;-70
2022/07/02 10:03:00;;;;;;;4.87;2.00;;;;;;;29.61;28.05;101090.94;1721734;81;21558;-70
2022/07/02 10:05:33;;;;;;;5.50;2.07;;;;;;;29.64;28.12;101090.19;1696903;83;21166;-69
2022/07/02 10:08:04;;;;;;;3.60;1.87;;;;;;;29.66;27.86;101084.52;1722705;81;21165;-70
2022/07/02 10:10:41;;;;;;;4.58;1.85;;;;;;;29.73;27.18;101085.19;1722802;81;21133;-68
2022/07/02 10:13:10;;;;;;;4.20;2.03;;;;;;;29.75;27.91;101081.49;1722138;81;21205;-68
2022/07/02 10:15:42;;;;;;;5.00;2.17;;;;;;;29.84;28.13;101083.34;1723363;81;21470;-69
2022/07/02 10:18:08;;;;;;;;;;;;;;;29.93;28.16;101076.17;1726517;81;21118;-69
2022/07/02 10:20:35;;;;;;;4.57;1.80;;;;;;;30.07;27.81;101091.47;1724999;82;20447;-69
2022/07/02 10:23:05;;;;;;;3.67;1.60;;;;;;;30.12;27.27;101089.77;1687894;84;21725;-69
2022/07/02 10:25:34;;;;;;;3.13;1.60;;;;;;;30.11;27.14;101083.27;1689481;84;21005;-69
2022/07/02 10:28:01;;;;;;;4.03;2.13;;;;;;;30.08;27.50;101084.02;1723626;81;21543;-68
2022/07/02 10:30:32;;;;;;;3.40;2.10;;;;;;;30.13;27.33;101084.45;1722005;81;21059;-69
2022/07/02 10:33:08;;;;;;;;;;;;;;;30.14;27.35;101084.69;1725077;81;21115;-69
2022/07/02 10:35:35;;;;;;;4.67;2.27;;;;;;;30.07;26.38;101090.69;1724259;81;21157;-69
2022/07/02 10:38:01;;;;;;;3.23;1.77;;;;;;;29.86;26.14;101104.42;1711034;81;21041;-69
2022/07/02 10:40:28;;;;;;;3.87;1.83;;;;;;;29.71;26.29;101090.86;1687423;83;21074;-69
2022/07/02 10:42:59;;;;;;;3.43;1.67;;;;;;;29.63;26.69;101088.61;1672440;82;21049;-69
2022/07/02 10:45:24;;;;;;;3.77;2.00;;;;;;;29.61;26.25;101088.97;1707427;82;21073;-68
2022/07/02 10:48:01;;;;;;;5.43;1.93;;;;;;;29.64;26.34;101083.30;1709020;82;21798;-68
2022/07/02 10:50:44;;;;;;;6.27;2.20;;;;;;;29.66;26.43;101085.90;1702705;82;21014;-69
2022/07/02 10:53:20;;;;;;;5.47;1.90;;;;;;;29.76;26.36;101087.20;1703290;82;21618;-68
2022/07/02 10:55:59;;;;;;;4.67;1.80;;;;;;;29.79;27.65;101090.58;1702507;83;21519;-69
2022/07/02 10:58:36;;;;;;;2.73;1.67;;;;;;;29.81;28.47;101079.17;1722518;83;21046;-70
2022/07/02 11:01:15;;;;;;;3.40;1.60;;;;;;;29.91;27.79;101083.45;1719996;83;21150;-70
2022/07/02 11:04:03;;;;;;;3.67;2.00;;;;;;;30.10;27.82;101074.78;1723330;82;21001;-70
2022/07/02 11:06:31;;;;;;;2.40;1.43;;;;;;;30.28;27.73;101075.00;1722780;83;21013;-69
2022/07/02 11:09:06;;;;;;;4.73;1.80;;;;;;;30.38;25.76;101068.20;1725345;83;21033;-70
2022/07/02 11:11:40;;;;;;;3.37;1.80;;;;;;;30.33;25.97;101061.66;1719051;81;21045;-69
2022/07/02 11:14:17;;;;;;;4.03;1.80;;;;;;;30.24;25.74;101057.06;1700444;81;21947;-70
2022/07/02 11:16:50;;;;;;;5.50;1.80;;;;;;;30.02;25.81;101063.49;1718963;83;21422;-70
2022/07/02 11:19:24;;;;;;;5.93;2.07;;;;;;;29.78;26.06;101069.73;1722168;83;21120;-70
2022/07/02 11:21:54;;;;;;;4.93;1.80;;;;;;;29.65;26.91;101065.64;1725630;82;21104;-69
2022/07/02 11:24:23;;;;;;;3.92;1.67;;;;;;;29.66;27.12;101062.50;1722954;83;21406;-71
2022/07/02 11:26:50;;;;;;;8.43;1.80;;;;;;;29.72;26.10;101058.05;1722875;83;21096;-70
2022/07/02 11:29:17;;;;;;;3.83;1.90;;;;;;;29.75;25.74;101052.58;1721291;83;21017;-70
2022/07/02 11:31:49;;;;;;;4.40;1.33;;;;;;;29.81;25.89;101044.75;1717039;81;21026;-69
2022/07/02 11:34:18;;;;;;;4.70;1.90;;;;;;;29.87;25.07;101058.40;1721699;81;21073;-70
2022/07/02 11:36:45;;;;;;;4.23;1.90;;;;;;;29.93;27.14;101051.39;1723513;83;20961;-69
2022/07/02 11:39:17;;;;;;;3.97;1.93;;;;;;;30.04;26.92;101052.31;1726129;83;21121;-69